Terminal Aerodrome Forecast
Issued by NWS

Home | Current Version | Previous Version | Text Only | Print | Product List | Glossary On
Versions: 1 2 3 4 5 6 7 8 9 10 11 12 13 14 15 16 17 18
000
FTUS43 KMQT 180400 AAA
TAFSAW
TAF AMD
KSAW 180447Z 1805/1824 01013KT P6SM OVC013
     FM181300 02009KT P6SM SCT015
      AMD LTD TO CLD VIS AND WIND TIL 181100=

USA.gov is the U.S. government's official web portal to all federal, state and local government web resources and services.